sensor_id;sensor_type;location;lat;lon;timestamp;P1;durP1;ratioP1;P2;durP2;ratioP2
15938;SDS011;8068;51.322;9.450;2024-01-15T00:01:43;5.47;;;5.27;;
15938;SDS011;8068;51.322;9.450;2024-01-15T00:04:11;5.73;;;5.33;;
15938;SDS011;8068;51.322;9.450;2024-01-15T00:06:38;5.57;;;5.27;;
15938;SDS011;8068;51.322;9.450;2024-01-15T00:09:04;5.40;;;5.20;;
15938;SDS011;8068;51.322;9.450;2024-01-15T00:11:33;4.17;;;4.07;;
15938;SDS011;8068;51.322;9.450;2024-01-15T00:14:00;5.00;;;4.70;;
15938;SDS011;8068;51.322;9.450;2024-01-15T00:16:26;7.43;;;6.80;;
15938;SDS011;8068;51.322;9.450;2024-01-15T00:18:53;7.50;;;6.90;;
15938;SDS011;8068;51.322;9.450;2024-01-15T00:21:20;8.63;;;7.87;;
15938;SDS011;8068;51.322;9.450;2024-01-15T00:23:47;9.33;;;8.43;;
15938;SDS011;8068;51.322;9.450;2024-01-15T00:26:14;9.07;;;8.10;;
15938;SDS011;8068;51.322;9.450;2024-01-15T00:28:40;10.77;;;8.30;;
15938;SDS011;8068;51.322;9.450;2024-01-15T00:31:07;9.77;;;8.77;;
15938;SDS011;8068;51.322;9.450;2024-01-15T00:33:34;10.00;;;8.17;;
15938;SDS011;8068;51.322;9.450;2024-01-15T00:36:02;9.10;;;8.23;;
15938;SDS011;8068;51.322;9.450;2024-01-15T00:38:29;7.33;;;6.70;;
15938;SDS011;8068;51.322;9.450;2024-01-15T00:40:56;6.27;;;5.87;;
15938;SDS011;8068;51.322;9.450;2024-01-15T00:43:23;6.90;;;6.30;;
15938;SDS011;8068;51.322;9.450;2024-01-15T00:45:50;5.60;;;5.30;;
15938;SDS011;8068;51.322;9.450;2024-01-15T00:48:17;5.63;;;5.30;;
15938;SDS011;8068;51.322;9.450;2024-01-15T00:50:44;5.50;;;5.30;;
15938;SDS011;8068;51.322;9.450;2024-01-15T00:53:10;4.57;;;4.37;;
15938;SDS011;8068;51.322;9.450;2024-01-15T00:55:37;6.53;;;5.20;;
15938;SDS011;8068;51.322;9.450;2024-01-15T00:58:04;5.40;;;5.10;;
15938;SDS011;8068;51.322;9.450;2024-01-15T01:00:31;5.20;;;5.00;;
15938;SDS011;8068;51.322;9.450;2024-01-15T01:02:58;4.90;;;4.70;;
15938;SDS011;8068;51.322;9.450;2024-01-15T01:05:24;4.80;;;4.60;;
15938;SDS011;8068;51.322;9.450;2024-01-15T01:07:51;4.80;;;4.60;;
15938;SDS011;8068;51.322;9.450;2024-01-15T01:10:18;4.57;;;4.37;;
15938;SDS011;8068;51.322;9.450;2024-01-15T01:12:45;4.90;;;4.60;;
15938;SDS011;8068;51.322;9.450;2024-01-15T01:15:12;3.97;;;3.77;;
15938;SDS011;8068;51.322;9.450;2024-01-15T01:17:39;4.47;;;4.27;;
15938;SDS011;8068;51.322;9.450;2024-01-15T01:20:06;4.30;;;4.10;;
15938;SDS011;8068;51.322;9.450;2024-01-15T01:22:35;4.27;;;4.07;;
15938;SDS011;8068;51.322;9.450;2024-01-15T01:25:02;4.47;;;4.27;;
15938;SDS011;8068;51.322;9.450;2024-01-15T01:27:29;4.83;;;4.53;;
15938;SDS011;8068;51.322;9.450;2024-01-15T01:29:56;3.83;;;3.73;;
15938;SDS011;8068;51.322;9.450;2024-01-15T01:32:23;4.23;;;4.07;;
15938;SDS011;8068;51.322;9.450;2024-01-15T01:34:50;4.13;;;4.03;;
15938;SDS011;8068;51.322;9.450;2024-01-15T01:37:18;4.03;;;3.83;;
15938;SDS011;8068;51.322;9.450;2024-01-15T01:39:44;4.00;;;3.80;;
15938;SDS011;8068;51.322;9.450;2024-01-15T01:42:11;3.67;;;3.47;;
15938;SDS011;8068;51.322;9.450;2024-01-15T01:44:39;3.57;;;3.47;;
15938;SDS011;8068;51.322;9.450;2024-01-15T01:47:06;4.53;;;4.43;;
15938;SDS011;8068;51.322;9.450;2024-01-15T01:49:32;3.20;;;3.10;;
15938;SDS011;8068;51.322;9.450;2024-01-15T01:52:02;3.60;;;3.50;;
15938;SDS011;8068;51.322;9.450;2024-01-15T01:54:32;4.07;;;3.80;;
15938;SDS011;8068;51.322;9.450;2024-01-15T01:56:59;4.00;;;3.90;;
15938;SDS011;8068;51.322;9.450;2024-01-15T01:59:26;3.90;;;3.70;;
15938;SDS011;8068;51.322;9.450;2024-01-15T02:01:54;3.90;;;3.80;;
15938;SDS011;8068;51.322;9.450;2024-01-15T02:04:22;4.00;;;3.80;;
15938;SDS011;8068;51.322;9.450;2024-01-15T02:06:50;3.73;;;3.53;;
15938;SDS011;8068;51.322;9.450;2024-01-15T02:09:17;4.20;;;4.00;;
15938;SDS011;8068;51.322;9.450;2024-01-15T02:11:46;3.90;;;3.70;;
15938;SDS011;8068;51.322;9.450;2024-01-15T02:14:13;3.63;;;3.53;;
15938;SDS011;8068;51.322;9.450;2024-01-15T02:16:40;4.07;;;3.97;;
15938;SDS011;8068;51.322;9.450;2024-01-15T02:19:06;3.60;;;3.50;;
15938;SDS011;8068;51.322;9.450;2024-01-15T02:21:33;4.00;;;3.90;;
15938;SDS011;8068;51.322;9.450;2024-01-15T02:24:00;3.80;;;3.60;;
15938;SDS011;8068;51.322;9.450;2024-01-15T02:26:27;3.43;;;3.33;;
15938;SDS011;8068;51.322;9.450;2024-01-15T02:28:54;3.57;;;3.37;;
15938;SDS011;8068;51.322;9.450;2024-01-15T02:31:21;3.97;;;3.77;;
15938;SDS011;8068;51.322;9.450;2024-01-15T02:33:49;3.23;;;3.13;;
15938;SDS011;8068;51.322;9.450;2024-01-15T02:36:16;3.30;;;3.10;;
15938;SDS011;8068;51.322;9.450;2024-01-15T02:38:43;3.20;;;3.10;;
15938;SDS011;8068;51.322;9.450;2024-01-15T02:41:09;3.00;;;2.90;;
15938;SDS011;8068;51.322;9.450;2024-01-15T02:43:36;3.20;;;3.10;;
15938;SDS011;8068;51.322;9.450;2024-01-15T02:46:03;3.90;;;3.80;;
15938;SDS011;8068;51.322;9.450;2024-01-15T02:48:30;3.50;;;3.40;;
15938;SDS011;8068;51.322;9.450;2024-01-15T02:50:57;5.83;;;3.53;;
15938;SDS011;8068;51.322;9.450;2024-01-15T02:53:23;3.03;;;2.93;;
15938;SDS011;8068;51.322;9.450;2024-01-15T02:55:50;4.00;;;3.80;;
15938;SDS011;8068;51.322;9.450;2024-01-15T02:58:17;3.83;;;3.63;;
15938;SDS011;8068;51.322;9.450;2024-01-15T03:00:44;3.60;;;3.40;;
15938;SDS011;8068;51.322;9.450;2024-01-15T03:03:11;3.53;;;3.37;;
15938;SDS011;8068;51.322;9.450;2024-01-15T03:05:38;4.10;;;3.90;;
15938;SDS011;8068;51.322;9.450;2024-01-15T03:08:05;3.60;;;3.50;;
15938;SDS011;8068;51.322;9.450;2024-01-15T03:10:31;3.37;;;3.27;;
15938;SDS011;8068;51.322;9.450;2024-01-15T03:12:58;3.60;;;3.40;;
15938;SDS011;8068;51.322;9.450;2024-01-15T03:15:25;3.23;;;3.03;;
15938;SDS011;8068;51.322;9.450;2024-01-15T03:17:52;3.67;;;3.47;;
15938;SDS011;8068;51.322;9.450;2024-01-15T03:20:19;4.03;;;3.30;;
15938;SDS011;8068;51.322;9.450;2024-01-15T03:22:45;4.50;;;3.63;;
15938;SDS011;8068;51.322;9.450;2024-01-15T03:25:12;5.17;;;3.53;;
15938;SDS011;8068;51.322;9.450;2024-01-15T03:27:39;3.43;;;3.13;;
15938;SDS011;8068;51.322;9.450;2024-01-15T03:30:06;4.00;;;3.77;;
15938;SDS011;8068;51.322;9.450;2024-01-15T03:32:33;3.30;;;3.10;;
15938;SDS011;8068;51.322;9.450;2024-01-15T03:35:00;4.50;;;3.23;;
15938;SDS011;8068;51.322;9.450;2024-01-15T03:37:27;5.97;;;3.47;;
15938;SDS011;8068;51.322;9.450;2024-01-15T03:39:54;4.13;;;3.33;;
15938;SDS011;8068;51.322;9.450;2024-01-15T03:42:21;3.27;;;3.03;;
15938;SDS011;8068;51.322;9.450;2024-01-15T03:44:47;3.20;;;3.00;;
15938;SDS011;8068;51.322;9.450;2024-01-15T03:47:14;3.40;;;3.10;;
15938;SDS011;8068;51.322;9.450;2024-01-15T03:49:41;3.20;;;3.00;;
15938;SDS011;8068;51.322;9.450;2024-01-15T03:52:08;2.77;;;2.67;;
15938;SDS011;8068;51.322;9.450;2024-01-15T03:54:35;3.60;;;2.77;;
15938;SDS011;8068;51.322;9.450;2024-01-15T03:57:02;4.37;;;3.27;;
15938;SDS011;8068;51.322;9.450;2024-01-15T03:59:29;8.33;;;2.57;;
15938;SDS011;8068;51.322;9.450;2024-01-15T04:01:55;3.27;;;2.97;;
15938;SDS011;8068;51.322;9.450;2024-01-15T04:04:22;10.70;;;2.73;;
15938;SDS011;8068;51.322;9.450;2024-01-15T04:06:49;4.03;;;2.30;;
15938;SDS011;8068;51.322;9.450;2024-01-15T04:09:16;2.23;;;2.13;;
15938;SDS011;8068;51.322;9.450;2024-01-15T04:11:43;3.20;;;2.80;;
15938;SDS011;8068;51.322;9.450;2024-01-15T04:14:10;6.93;;;2.37;;
15938;SDS011;8068;51.322;9.450;2024-01-15T04:16:37;2.37;;;2.27;;
15938;SDS011;8068;51.322;9.450;2024-01-15T04:19:04;2.73;;;2.53;;
15938;SDS011;8068;51.322;9.450;2024-01-15T04:21:31;4.93;;;2.37;;
15938;SDS011;8068;51.322;9.450;2024-01-15T04:23:58;13.53;;;2.63;;
15938;SDS011;8068;51.322;9.450;2024-01-15T04:26:25;7.50;;;2.07;;
15938;SDS011;8068;51.322;9.450;2024-01-15T04:28:52;4.47;;;2.47;;
15938;SDS011;8068;51.322;9.450;2024-01-15T04:31:24;6.00;;;2.40;;
15938;SDS011;8068;51.322;9.450;2024-01-15T04:33:53;3.50;;;3.40;;
15938;SDS011;8068;51.322;9.450;2024-01-15T04:36:21;5.07;;;4.67;;
15938;SDS011;8068;51.322;9.450;2024-01-15T04:38:47;4.70;;;4.33;;
15938;SDS011;8068;51.322;9.450;2024-01-15T04:41:15;3.43;;;2.93;;
15938;SDS011;8068;51.322;9.450;2024-01-15T04:43:43;4.03;;;3.67;;
15938;SDS011;8068;51.322;9.450;2024-01-15T04:46:09;4.67;;;4.10;;
15938;SDS011;8068;51.322;9.450;2024-01-15T04:48:36;4.67;;;4.27;;
15938;SDS011;8068;51.322;9.450;2024-01-15T04:51:04;5.00;;;4.60;;
15938;SDS011;8068;51.322;9.450;2024-01-15T04:53:31;4.83;;;4.50;;
15938;SDS011;8068;51.322;9.450;2024-01-15T04:55:58;4.07;;;3.77;;
15938;SDS011;8068;51.322;9.450;2024-01-15T04:58:24;3.93;;;3.73;;
15938;SDS011;8068;51.322;9.450;2024-01-15T05:00:53;3.23;;;2.90;;
15938;SDS011;8068;51.322;9.450;2024-01-15T05:03:21;4.40;;;3.47;;
15938;SDS011;8068;51.322;9.450;2024-01-15T05:05:48;7.07;;;3.13;;
15938;SDS011;8068;51.322;9.450;2024-01-15T05:08:15;5.00;;;4.07;;
15938;SDS011;8068;51.322;9.450;2024-01-15T05:10:42;6.13;;;5.37;;
15938;SDS011;8068;51.322;9.450;2024-01-15T05:13:08;4.80;;;3.90;;
15938;SDS011;8068;51.322;9.450;2024-01-15T05:15:35;8.23;;;3.63;;
15938;SDS011;8068;51.322;9.450;2024-01-15T05:18:02;3.80;;;3.50;;
15938;SDS011;8068;51.322;9.450;2024-01-15T05:20:29;3.60;;;3.30;;
15938;SDS011;8068;51.322;9.450;2024-01-15T05:22:56;3.73;;;2.20;;
15938;SDS011;8068;51.322;9.450;2024-01-15T05:25:23;5.10;;;2.50;;
15938;SDS011;8068;51.322;9.450;2024-01-15T05:27:49;5.13;;;2.20;;
15938;SDS011;8068;51.322;9.450;2024-01-15T05:30:16;1.90;;;1.80;;
15938;SDS011;8068;51.322;9.450;2024-01-15T05:32:43;4.90;;;2.93;;
15938;SDS011;8068;51.322;9.450;2024-01-15T05:35:10;5.13;;;3.20;;
15938;SDS011;8068;51.322;9.450;2024-01-15T05:37:38;2.60;;;2.40;;
15938;SDS011;8068;51.322;9.450;2024-01-15T05:40:05;4.20;;;3.87;;
15938;SDS011;8068;51.322;9.450;2024-01-15T05:42:32;3.83;;;3.60;;
15938;SDS011;8068;51.322;9.450;2024-01-15T05:44:59;7.87;;;2.20;;
15938;SDS011;8068;51.322;9.450;2024-01-15T05:47:26;4.67;;;2.30;;
15938;SDS011;8068;51.322;9.450;2024-01-15T05:49:53;2.30;;;2.10;;
15938;SDS011;8068;51.322;9.450;2024-01-15T05:52:21;6.30;;;3.10;;
15938;SDS011;8068;51.322;9.450;2024-01-15T05:54:49;5.23;;;2.70;;
15938;SDS011;8068;51.322;9.450;2024-01-15T05:57:16;3.57;;;2.90;;
15938;SDS011;8068;51.322;9.450;2024-01-15T05:59:43;3.70;;;3.10;;
15938;SDS011;8068;51.322;9.450;2024-01-15T06:02:09;7.63;;;4.10;;
15938;SDS011;8068;51.322;9.450;2024-01-15T06:04:37;4.33;;;3.97;;
15938;SDS011;8068;51.322;9.450;2024-01-15T06:07:04;5.17;;;4.77;;
15938;SDS011;8068;51.322;9.450;2024-01-15T06:09:30;5.10;;;4.60;;
15938;SDS011;8068;51.322;9.450;2024-01-15T06:11:58;5.37;;;4.77;;
15938;SDS011;8068;51.322;9.450;2024-01-15T06:14:25;4.20;;;3.80;;
15938;SDS011;8068;51.322;9.450;2024-01-15T06:16:52;10.30;;;4.27;;
15938;SDS011;8068;51.322;9.450;2024-01-15T06:19:19;5.00;;;4.10;;
15938;SDS011;8068;51.322;9.450;2024-01-15T06:21:46;9.30;;;4.57;;
15938;SDS011;8068;51.322;9.450;2024-01-15T06:24:13;5.70;;;4.80;;
15938;SDS011;8068;51.322;9.450;2024-01-15T06:26:40;5.23;;;4.43;;
15938;SDS011;8068;51.322;9.450;2024-01-15T06:29:07;3.80;;;3.50;;
15938;SDS011;8068;51.322;9.450;2024-01-15T06:31:34;4.00;;;3.70;;
15938;SDS011;8068;51.322;9.450;2024-01-15T06:34:01;5.27;;;4.10;;
15938;SDS011;8068;51.322;9.450;2024-01-15T06:36:28;7.83;;;3.57;;
15938;SDS011;8068;51.322;9.450;2024-01-15T06:38:55;5.60;;;3.13;;
15938;SDS011;8068;51.322;9.450;2024-01-15T06:41:22;2.83;;;2.53;;
15938;SDS011;8068;51.322;9.450;2024-01-15T06:43:49;3.40;;;2.63;;
15938;SDS011;8068;51.322;9.450;2024-01-15T06:46:22;2.67;;;2.47;;
15938;SDS011;8068;51.322;9.450;2024-01-15T06:48:49;4.90;;;2.77;;
15938;SDS011;8068;51.322;9.450;2024-01-15T06:51:16;4.73;;;2.10;;
15938;SDS011;8068;51.322;9.450;2024-01-15T06:53:43;4.23;;;2.80;;
15938;SDS011;8068;51.322;9.450;2024-01-15T06:56:10;2.60;;;2.40;;
15938;SDS011;8068;51.322;9.450;2024-01-15T06:58:37;4.23;;;2.77;;
15938;SDS011;8068;51.322;9.450;2024-01-15T07:01:04;2.57;;;2.30;;
15938;SDS011;8068;51.322;9.450;2024-01-15T07:03:31;2.90;;;2.70;;
15938;SDS011;8068;51.322;9.450;2024-01-15T07:05:59;2.73;;;2.63;;
15938;SDS011;8068;51.322;9.450;2024-01-15T07:08:25;2.83;;;2.57;;
15938;SDS011;8068;51.322;9.450;2024-01-15T07:10:52;7.20;;;3.23;;
15938;SDS011;8068;51.322;9.450;2024-01-15T07:13:19;6.40;;;3.63;;
15938;SDS011;8068;51.322;9.450;2024-01-15T07:15:46;7.00;;;2.70;;
15938;SDS011;8068;51.322;9.450;2024-01-15T07:18:13;4.33;;;3.10;;
15938;SDS011;8068;51.322;9.450;2024-01-15T07:20:40;3.67;;;3.30;;
15938;SDS011;8068;51.322;9.450;2024-01-15T07:23:06;3.30;;;3.00;;
15938;SDS011;8068;51.322;9.450;2024-01-15T07:25:33;3.73;;;2.70;;
15938;SDS011;8068;51.322;9.450;2024-01-15T07:28:00;6.40;;;3.10;;
15938;SDS011;8068;51.322;9.450;2024-01-15T07:30:27;3.20;;;2.73;;
15938;SDS011;8068;51.322;9.450;2024-01-15T07:32:54;2.97;;;2.70;;
15938;SDS011;8068;51.322;9.450;2024-01-15T07:35:21;5.77;;;2.90;;
15938;SDS011;8068;51.322;9.450;2024-01-15T07:37:48;5.27;;;2.90;;
15938;SDS011;8068;51.322;9.450;2024-01-15T07:40:15;3.07;;;2.77;;
15938;SDS011;8068;51.322;9.450;2024-01-15T07:42:42;7.17;;;2.77;;
15938;SDS011;8068;51.322;9.450;2024-01-15T07:45:10;3.77;;;3.57;;
15938;SDS011;8068;51.322;9.450;2024-01-15T07:47:37;7.53;;;2.90;;
15938;SDS011;8068;51.322;9.450;2024-01-15T07:50:04;2.43;;;2.33;;
15938;SDS011;8068;51.322;9.450;2024-01-15T07:52:32;7.20;;;3.10;;
15938;SDS011;8068;51.322;9.450;2024-01-15T07:54:59;3.40;;;3.10;;
15938;SDS011;8068;51.322;9.450;2024-01-15T07:57:26;3.70;;;2.57;;
15938;SDS011;8068;51.322;9.450;2024-01-15T07:59:54;2.77;;;2.67;;
15938;SDS011;8068;51.322;9.450;2024-01-15T08:02:21;2.70;;;2.50;;
15938;SDS011;8068;51.322;9.450;2024-01-15T08:04:48;2.40;;;2.30;;
15938;SDS011;8068;51.322;9.450;2024-01-15T08:07:15;3.90;;;2.87;;
15938;SDS011;8068;51.322;9.450;2024-01-15T08:09:42;2.90;;;2.70;;
15938;SDS011;8068;51.322;9.450;2024-01-15T08:12:09;4.77;;;3.10;;
15938;SDS011;8068;51.322;9.450;2024-01-15T08:14:36;6.03;;;3.80;;
15938;SDS011;8068;51.322;9.450;2024-01-15T08:17:03;4.80;;;2.80;;
15938;SDS011;8068;51.322;9.450;2024-01-15T08:19:30;4.87;;;2.93;;
15938;SDS011;8068;51.322;9.450;2024-01-15T08:21:58;4.00;;;2.67;;
15938;SDS011;8068;51.322;9.450;2024-01-15T08:24:25;2.80;;;2.70;;
15938;SDS011;8068;51.322;9.450;2024-01-15T08:26:52;2.33;;;2.23;;
15938;SDS011;8068;51.322;9.450;2024-01-15T08:29:18;3.43;;;3.07;;
15938;SDS011;8068;51.322;9.450;2024-01-15T08:31:47;3.10;;;2.80;;
15938;SDS011;8068;51.322;9.450;2024-01-15T08:34:14;3.10;;;2.87;;
15938;SDS011;8068;51.322;9.450;2024-01-15T08:36:41;3.17;;;2.87;;
15938;SDS011;8068;51.322;9.450;2024-01-15T08:39:08;3.27;;;3.00;;
15938;SDS011;8068;51.322;9.450;2024-01-15T08:41:36;7.23;;;3.60;;
15938;SDS011;8068;51.322;9.450;2024-01-15T08:44:02;2.50;;;2.40;;
15938;SDS011;8068;51.322;9.450;2024-01-15T08:46:29;4.30;;;3.67;;
15938;SDS011;8068;51.322;9.450;2024-01-15T08:48:56;2.93;;;2.83;;
15938;SDS011;8068;51.322;9.450;2024-01-15T08:51:23;6.83;;;3.10;;
15938;SDS011;8068;51.322;9.450;2024-01-15T08:53:50;3.80;;;3.50;;
15938;SDS011;8068;51.322;9.450;2024-01-15T08:56:17;4.00;;;3.57;;
15938;SDS011;8068;51.322;9.450;2024-01-15T08:58:44;3.70;;;2.90;;
15938;SDS011;8068;51.322;9.450;2024-01-15T09:01:12;3.40;;;2.73;;
15938;SDS011;8068;51.322;9.450;2024-01-15T09:03:40;4.77;;;2.83;;
15938;SDS011;8068;51.322;9.450;2024-01-15T09:06:08;7.80;;;3.20;;
15938;SDS011;8068;51.322;9.450;2024-01-15T09:08:36;3.17;;;2.87;;
15938;SDS011;8068;51.322;9.450;2024-01-15T09:11:03;3.23;;;3.03;;
15938;SDS011;8068;51.322;9.450;2024-01-15T09:13:30;3.40;;;3.30;;
15938;SDS011;8068;51.322;9.450;2024-01-15T09:15:57;5.10;;;3.90;;
15938;SDS011;8068;51.322;9.450;2024-01-15T09:18:24;3.63;;;3.43;;
15938;SDS011;8068;51.322;9.450;2024-01-15T09:20:51;4.03;;;3.50;;
15938;SDS011;8068;51.322;9.450;2024-01-15T09:23:18;2.93;;;2.83;;
15938;SDS011;8068;51.322;9.450;2024-01-15T09:25:45;3.40;;;3.13;;
15938;SDS011;8068;51.322;9.450;2024-01-15T09:28:12;2.93;;;2.73;;
15938;SDS011;8068;51.322;9.450;2024-01-15T09:30:38;3.43;;;3.20;;
15938;SDS011;8068;51.322;9.450;2024-01-15T09:33:05;3.27;;;3.07;;
15938;SDS011;8068;51.322;9.450;2024-01-15T09:35:32;3.53;;;3.33;;
15938;SDS011;8068;51.322;9.450;2024-01-15T09:37:59;3.20;;;2.90;;
15938;SDS011;8068;51.322;9.450;2024-01-15T09:40:28;3.03;;;2.83;;
15938;SDS011;8068;51.322;9.450;2024-01-15T09:42:57;2.70;;;2.50;;
15938;SDS011;8068;51.322;9.450;2024-01-15T09:45:24;3.10;;;2.20;;
15938;SDS011;8068;51.322;9.450;2024-01-15T09:47:51;4.17;;;2.87;;
15938;SDS011;8068;51.322;9.450;2024-01-15T09:50:18;2.23;;;2.13;;
15938;SDS011;8068;51.322;9.450;2024-01-15T09:52:45;2.63;;;2.43;;
15938;SDS011;8068;51.322;9.450;2024-01-15T09:55:13;2.73;;;2.10;;
15938;SDS011;8068;51.322;9.450;2024-01-15T09:57:40;2.37;;;2.27;;
15938;SDS011;8068;51.322;9.450;2024-01-15T10:00:07;2.33;;;2.23;;
15938;SDS011;8068;51.322;9.450;2024-01-15T10:02:37;2.43;;;2.23;;
15938;SDS011;8068;51.322;9.450;2024-01-15T10:05:04;2.03;;;1.93;;
15938;SDS011;8068;51.322;9.450;2024-01-15T10:07:32;2.57;;;2.30;;
15938;SDS011;8068;51.322;9.450;2024-01-15T10:10:01;2.90;;;2.70;;
15938;SDS011;8068;51.322;9.450;2024-01-15T10:12:30;2.60;;;2.47;;
15938;SDS011;8068;51.322;9.450;2024-01-15T10:14:57;2.83;;;2.20;;
15938;SDS011;8068;51.322;9.450;2024-01-15T10:17:24;2.37;;;2.20;;
15938;SDS011;8068;51.322;9.450;2024-01-15T10:19:52;2.30;;;2.10;;
15938;SDS011;8068;51.322;9.450;2024-01-15T10:22:19;2.47;;;2.37;;
15938;SDS011;8068;51.322;9.450;2024-01-15T10:24:45;4.13;;;1.83;;
15938;SDS011;8068;51.322;9.450;2024-01-15T10:27:15;2.00;;;1.90;;
15938;SDS011;8068;51.322;9.450;2024-01-15T10:29:42;2.60;;;2.47;;
15938;SDS011;8068;51.322;9.450;2024-01-15T10:32:10;4.23;;;2.10;;
15938;SDS011;8068;51.322;9.450;2024-01-15T10:34:38;2.30;;;2.10;;
15938;SDS011;8068;51.322;9.450;2024-01-15T10:37:07;2.57;;;2.03;;
15938;SDS011;8068;51.322;9.450;2024-01-15T10:39:34;2.07;;;1.97;;
15938;SDS011;8068;51.322;9.450;2024-01-15T10:42:02;2.40;;;1.80;;
15938;SDS011;8068;51.322;9.450;2024-01-15T10:44:29;2.17;;;1.97;;
15938;SDS011;8068;51.322;9.450;2024-01-15T10:46:56;3.67;;;2.57;;
15938;SDS011;8068;51.322;9.450;2024-01-15T10:49:24;2.10;;;2.00;;
15938;SDS011;8068;51.322;9.450;2024-01-15T10:51:58;5.43;;;2.43;;
15938;SDS011;8068;51.322;9.450;2024-01-15T10:54:26;2.30;;;2.20;;
15938;SDS011;8068;51.322;9.450;2024-01-15T10:56:53;2.50;;;2.30;;
15938;SDS011;8068;51.322;9.450;2024-01-15T10:59:21;2.67;;;2.47;;
15938;SDS011;8068;51.322;9.450;2024-01-15T11:01:51;4.47;;;2.30;;
15938;SDS011;8068;51.322;9.450;2024-01-15T11:04:22;2.70;;;2.60;;
15938;SDS011;8068;51.322;9.450;2024-01-15T11:06:52;2.88;;;2.53;;
15938;SDS011;8068;51.322;9.450;2024-01-15T11:09:40;2.90;;;2.20;;
15938;SDS011;8068;51.322;9.450;2024-01-15T11:12:27;1.93;;;1.83;;
15938;SDS011;8068;51.322;9.450;2024-01-15T11:15:17;2.20;;;2.07;;
15938;SDS011;8068;51.322;9.450;2024-01-15T11:18:05;2.80;;;2.60;;
15938;SDS011;8068;51.322;9.450;2024-01-15T11:24:00;2.60;;;2.50;;
15938;SDS011;8068;51.322;9.450;2024-01-15T11:26:47;4.20;;;3.07;;
15938;SDS011;8068;51.322;9.450;2024-01-15T11:29:37;3.90;;;3.67;;
15938;SDS011;8068;51.322;9.450;2024-01-15T11:32:30;6.37;;;5.87;;
15938;SDS011;8068;51.322;9.450;2024-01-15T11:35:19;6.23;;;5.60;;
15938;SDS011;8068;51.322;9.450;2024-01-15T11:38:06;6.50;;;5.80;;
15938;SDS011;8068;51.322;9.450;2024-01-15T11:40:53;6.40;;;5.80;;
15938;SDS011;8068;51.322;9.450;2024-01-15T11:43:40;6.57;;;6.07;;
15938;SDS011;8068;51.322;9.450;2024-01-15T11:46:27;7.83;;;5.57;;
15938;SDS011;8068;51.322;9.450;2024-01-15T11:49:21;6.67;;;6.00;;
15938;SDS011;8068;51.322;9.450;2024-01-15T11:52:13;6.07;;;5.53;;
15938;SDS011;8068;51.322;9.450;2024-01-15T11:55:14;5.53;;;5.13;;
15938;SDS011;8068;51.322;9.450;2024-01-15T11:58:01;2.30;;;2.20;;
15938;SDS011;8068;51.322;9.450;2024-01-15T12:00:51;1.60;;;1.50;;
15938;SDS011;8068;51.322;9.450;2024-01-15T12:03:38;2.10;;;1.70;;
15938;SDS011;8068;51.322;9.450;2024-01-15T12:06:25;1.30;;;1.20;;
15938;SDS011;8068;51.322;9.450;2024-01-15T12:09:12;1.40;;;1.30;;
15938;SDS011;8068;51.322;9.450;2024-01-15T12:12:02;1.70;;;1.60;;
15938;SDS011;8068;51.322;9.450;2024-01-15T12:14:52;1.70;;;1.60;;
15938;SDS011;8068;51.322;9.450;2024-01-15T12:17:39;0.80;;;0.80;;
15938;SDS011;8068;51.322;9.450;2024-01-15T12:20:26;1.00;;;0.90;;
15938;SDS011;8068;51.322;9.450;2024-01-15T12:23:13;1.40;;;1.30;;
15938;SDS011;8068;51.322;9.450;2024-01-15T12:26:00;1.73;;;1.63;;
15938;SDS011;8068;51.322;9.450;2024-01-15T12:28:50;1.70;;;1.60;;
15938;SDS011;8068;51.322;9.450;2024-01-15T12:31:41;1.13;;;1.03;;
15938;SDS011;8068;51.322;9.450;2024-01-15T12:34:29;2.93;;;1.40;;
15938;SDS011;8068;51.322;9.450;2024-01-15T12:37:19;2.90;;;1.20;;
15938;SDS011;8068;51.322;9.450;2024-01-15T12:40:07;1.47;;;1.30;;
15938;SDS011;8068;51.322;9.450;2024-01-15T12:42:54;1.20;;;1.10;;
15938;SDS011;8068;51.322;9.450;2024-01-15T12:45:41;1.10;;;0.60;;
15938;SDS011;8068;51.322;9.450;2024-01-15T12:48:30;1.73;;;1.00;;
15938;SDS011;8068;51.322;9.450;2024-01-15T12:51:16;1.30;;;0.70;;
15938;SDS011;8068;51.322;9.450;2024-01-15T12:54:03;4.50;;;0.80;;
15938;SDS011;8068;51.322;9.450;2024-01-15T12:56:50;3.17;;;1.40;;
15938;SDS011;8068;51.322;9.450;2024-01-15T12:59:37;0.80;;;0.73;;
15938;SDS011;8068;51.322;9.450;2024-01-15T13:02:24;1.87;;;1.10;;
15938;SDS011;8068;51.322;9.450;2024-01-15T13:05:11;1.17;;;1.07;;
15938;SDS011;8068;51.322;9.450;2024-01-15T13:08:01;2.93;;;0.80;;
15938;SDS011;8068;51.322;9.450;2024-01-15T13:10:47;2.10;;;1.07;;
15938;SDS011;8068;51.322;9.450;2024-01-15T13:13:34;1.83;;;0.97;;
15938;SDS011;8068;51.322;9.450;2024-01-15T13:16:21;1.53;;;1.43;;
15938;SDS011;8068;51.322;9.450;2024-01-15T13:19:11;2.63;;;1.17;;
15938;SDS011;8068;51.322;9.450;2024-01-15T13:21:59;2.93;;;1.20;;
15938;SDS011;8068;51.322;9.450;2024-01-15T13:24:46;3.93;;;3.00;;
15938;SDS011;8068;51.322;9.450;2024-01-15T13:27:34;3.50;;;0.97;;
15938;SDS011;8068;51.322;9.450;2024-01-15T13:30:22;1.20;;;0.97;;
15938;SDS011;8068;51.322;9.450;2024-01-15T13:33:09;3.90;;;0.90;;
15938;SDS011;8068;51.322;9.450;2024-01-15T13:35:56;1.73;;;0.90;;
15938;SDS011;8068;51.322;9.450;2024-01-15T13:38:43;1.73;;;0.80;;
15938;SDS011;8068;51.322;9.450;2024-01-15T13:41:30;3.47;;;1.10;;
15938;SDS011;8068;51.322;9.450;2024-01-15T13:44:17;2.43;;;0.90;;
15938;SDS011;8068;51.322;9.450;2024-01-15T13:47:03;2.10;;;1.73;;
15938;SDS011;8068;51.322;9.450;2024-01-15T13:49:52;3.73;;;1.50;;
15938;SDS011;8068;51.322;9.450;2024-01-15T13:52:39;4.30;;;0.80;;
15938;SDS011;8068;51.322;9.450;2024-01-15T13:55:26;4.57;;;1.20;;
15938;SDS011;8068;51.322;9.450;2024-01-15T13:58:13;1.30;;;1.20;;
15938;SDS011;8068;51.322;9.450;2024-01-15T14:01:00;1.50;;;1.10;;
15938;SDS011;8068;51.322;9.450;2024-01-15T14:03:47;2.30;;;1.23;;
15938;SDS011;8068;51.322;9.450;2024-01-15T14:06:34;1.60;;;1.43;;
15938;SDS011;8068;51.322;9.450;2024-01-15T14:09:21;7.23;;;1.40;;
15938;SDS011;8068;51.322;9.450;2024-01-15T14:12:08;3.57;;;1.50;;
15938;SDS011;8068;51.322;9.450;2024-01-15T14:14:55;3.27;;;1.57;;
15938;SDS011;8068;51.322;9.450;2024-01-15T14:17:42;3.97;;;1.40;;
15938;SDS011;8068;51.322;9.450;2024-01-15T14:20:29;1.77;;;1.13;;
15938;SDS011;8068;51.322;9.450;2024-01-15T14:23:15;3.67;;;1.40;;
15938;SDS011;8068;51.322;9.450;2024-01-15T14:26:02;2.40;;;1.80;;
15938;SDS011;8068;51.322;9.450;2024-01-15T14:28:50;1.63;;;1.53;;
15938;SDS011;8068;51.322;9.450;2024-01-15T14:31:38;4.03;;;2.60;;
15938;SDS011;8068;51.322;9.450;2024-01-15T14:34:26;1.60;;;1.13;;
15938;SDS011;8068;51.322;9.450;2024-01-15T14:37:13;1.53;;;1.40;;
15938;SDS011;8068;51.322;9.450;2024-01-15T14:40:00;1.50;;;1.40;;
15938;SDS011;8068;51.322;9.450;2024-01-15T14:42:47;2.80;;;1.67;;
15938;SDS011;8068;51.322;9.450;2024-01-15T14:45:33;7.10;;;4.67;;
15938;SDS011;8068;51.322;9.450;2024-01-15T14:48:20;2.20;;;1.30;;
15938;SDS011;8068;51.322;9.450;2024-01-15T14:51:07;1.90;;;1.80;;
15938;SDS011;8068;51.322;9.450;2024-01-15T14:53:54;1.20;;;1.10;;
15938;SDS011;8068;51.322;9.450;2024-01-15T14:56:41;1.60;;;1.10;;
15938;SDS011;8068;51.322;9.450;2024-01-15T14:59:29;1.87;;;1.70;;
15938;SDS011;8068;51.322;9.450;2024-01-15T15:02:16;8.43;;;1.40;;
15938;SDS011;8068;51.322;9.450;2024-01-15T15:05:04;1.73;;;1.40;;
15938;SDS011;8068;51.322;9.450;2024-01-15T15:07:51;1.73;;;1.20;;
15938;SDS011;8068;51.322;9.450;2024-01-15T15:10:38;1.83;;;1.70;;
15938;SDS011;8068;51.322;9.450;2024-01-15T15:13:26;2.40;;;2.03;;
15938;SDS011;8068;51.322;9.450;2024-01-15T15:16:30;1.93;;;1.83;;
15938;SDS011;8068;51.322;9.450;2024-01-15T15:19:17;5.00;;;2.90;;
15938;SDS011;8068;51.322;9.450;2024-01-15T15:22:04;2.93;;;2.53;;
15938;SDS011;8068;51.322;9.450;2024-01-15T15:24:51;2.00;;;1.90;;
15938;SDS011;8068;51.322;9.450;2024-01-15T15:27:38;2.00;;;1.90;;
15938;SDS011;8068;51.322;9.450;2024-01-15T15:30:26;1.70;;;1.60;;
15938;SDS011;8068;51.322;9.450;2024-01-15T15:33:13;1.70;;;1.60;;
15938;SDS011;8068;51.322;9.450;2024-01-15T15:36:01;1.53;;;1.43;;